Time;durP1;ratioP1;P1;durP2;ratioP2;P2;SDS_P1;SDS_P2;PMS_P1;PMS_P2;Temp;Humidity;BMP_temperature;BMP_pressure;BME280_temperature;BME280_humidity;BME280_pressure;Samples;Min_cycle;Max_cycle;Signal;HPM_P1;HPM_P2
2021/04/24 00:00:50;;;;;;;9.90;3.85;;;;;;;3.27;70.86;99493.00;3480447;28;20045;-45
2021/04/24 00:02:31;;;;;;;9.18;4.45;;;;;;;3.25;71.25;99492.06;3483492;28;20052;-53
2021/04/24 00:04:13;;;;;;;11.70;5.85;;;;;;;3.24;71.29;99498.00;3478979;28;20053;-45
2021/04/24 00:05:54;;;;;;;12.63;6.75;;;;;;;3.21;71.42;99497.91;3482849;28;20053;-45
2021/04/24 00:07:35;;;;;;;12.25;6.25;;;;;;;3.18;71.57;99490.94;3480382;28;20506;-45
2021/04/24 00:09:17;;;;;;;10.07;5.63;;;;;;;3.16;71.83;99496.81;3480108;28;20056;-45
2021/04/24 00:10:58;;;;;;;6.15;4.22;;;;;;;3.13;72.34;99494.13;3483004;28;20053;-50
2021/04/24 00:12:40;;;;;;;6.32;3.70;;;;;;;3.11;72.21;99500.88;3479869;28;20055;-51
2021/04/24 00:14:21;;;;;;;7.57;3.72;;;;;;;3.07;72.67;99498.19;3481968;28;20049;-52
2021/04/24 00:16:04;;;;;;;7.93;4.03;;;;;;;3.04;72.58;99500.63;3479926;28;20176;-44
2021/04/24 00:17:46;;;;;;;9.23;3.80;;;;;;;3.00;72.90;99498.75;3483096;28;20187;-44
2021/04/24 00:19:28;;;;;;;6.20;3.70;;;;;;;2.99;73.21;99502.13;3479435;28;20468;-53
2021/04/24 00:21:10;;;;;;;7.65;3.60;;;;;;;2.98;73.13;99502.09;3481290;28;20056;-44
2021/04/24 00:22:55;;;;;;;5.68;3.33;;;;;;;2.96;73.06;99503.69;3482089;28;20489;-44
2021/04/24 00:24:36;;;;;;;7.22;3.50;;;;;;;2.95;72.64;99504.50;3477765;28;20071;-51
2021/04/24 00:26:17;;;;;;;7.57;3.42;;;;;;;2.96;73.13;99503.69;3469953;28;20092;-45
2021/04/24 00:27:59;;;;;;;5.28;2.90;;;;;;;2.95;73.24;99504.50;3478535;28;20045;-44
2021/04/24 00:29:41;;;;;;;8.93;3.80;;;;;;;2.95;73.50;99500.25;3482120;28;20067;-44
2021/04/24 00:31:23;;;;;;;10.07;3.70;;;;;;;2.96;73.68;99504.59;3478696;28;20075;-44
2021/04/24 00:33:05;;;;;;;5.40;3.40;;;;;;;2.96;73.65;99509.72;3479636;28;20113;-44
2021/04/24 00:34:47;;;;;;;7.38;3.50;;;;;;;2.97;73.88;99506.31;3469289;28;20045;-45
2021/04/24 00:36:29;;;;;;;7.15;3.67;;;;;;;2.98;73.99;99502.09;3475058;28;20052;-51
2021/04/24 00:38:10;;;;;;;7.53;3.58;;;;;;;2.96;74.33;99507.16;3483365;28;20040;-45
2021/04/24 00:39:52;;;;;;;12.10;3.50;;;;;;;2.96;74.19;99509.72;3478233;28;20049;-45
2021/04/24 00:41:33;;;;;;;6.13;2.97;;;;;;;2.97;74.03;99510.56;3480632;28;20052;-51
2021/04/24 00:43:16;;;;;;;5.43;2.95;;;;;;;2.94;74.36;99510.44;3480511;28;20139;-45
2021/04/24 00:44:57;;;;;;;5.32;3.85;;;;;;;2.93;74.52;99507.00;3480136;28;20128;-45
2021/04/24 00:46:41;;;;;;;5.53;2.95;;;;;;;2.91;74.26;99508.63;3469212;28;20419;-45
2021/04/24 00:48:23;;;;;;;9.02;3.85;;;;;;;2.89;74.71;99508.56;3475205;28;20502;-50
2021/04/24 00:50:07;;;;;;;6.20;3.20;;;;;;;2.88;74.53;99506.81;3482518;28;20060;-52
2021/04/24 00:51:48;;;;;;;6.70;3.13;;;;;;;2.87;74.89;99506.75;3477776;28;20045;-45
2021/04/24 00:53:30;;;;;;;6.47;3.42;;;;;;;2.85;75.19;99513.50;3479669;28;20057;-54
2021/04/24 00:55:12;;;;;;;7.07;3.40;;;;;;;2.82;75.31;99503.13;3480820;28;20426;-45
2021/04/24 00:56:53;;;;;;;7.78;3.13;;;;;;;2.79;75.69;99509.00;3479910;28;20049;-51
2021/04/24 00:58:35;;;;;;;5.15;2.97;;;;;;;2.78;74.95;99511.47;3482582;28;20052;-45
2021/04/24 01:00:22;;;;;;;7.40;3.50;;;;;;;2.76;75.82;99505.44;3479353;28;20475;-51
2021/04/24 01:02:05;;;;;;;9.15;3.63;;;;;;;2.75;76.44;99503.66;3483199;28;20521;-44
2021/04/24 01:03:47;;;;;;;11.70;3.65;;;;;;;2.74;76.42;99499.38;3477656;28;20080;-51
2021/04/24 01:05:31;;;;;;;7.38;3.30;;;;;;;2.74;76.72;99492.56;3480923;28;20048;-45
2021/04/24 01:07:13;;;;;;;6.97;3.45;;;;;;;2.75;76.48;99498.53;3469874;28;20053;-44
2021/04/24 01:08:55;;;;;;;6.63;3.25;;;;;;;2.77;77.07;99496.94;3473331;28;20056;-44
2021/04/24 01:10:39;;;;;;;5.97;3.13;;;;;;;2.80;77.15;99497.06;3483502;28;20052;-45
2021/04/24 01:12:21;;;;;;;6.57;3.20;;;;;;;2.81;77.36;99497.13;3479834;28;20434;-49
2021/04/24 01:14:03;;;;;;;5.97;3.13;;;;;;;2.85;77.04;99495.56;3480353;28;20133;-51
2021/04/24 01:15:47;;;;;;;4.95;2.85;;;;;;;2.87;76.69;99499.06;3478812;28;20060;-51
2021/04/24 01:17:29;;;;;;;9.02;3.22;;;;;;;2.88;76.72;99495.69;3480769;28;20099;-50
2021/04/24 01:19:11;;;;;;;4.35;2.92;;;;;;;2.90;76.86;99494.06;3481380;28;20060;-44
2021/04/24 01:20:56;;;;;;;5.28;3.15;;;;;;;2.89;76.66;99492.34;3480069;28;20040;-50
2021/04/24 01:22:40;;;;;;;5.68;3.25;;;;;;;2.88;77.13;99504.25;3481938;28;20049;-50
2021/04/24 01:24:21;;;;;;;4.15;2.55;;;;;;;2.87;77.50;99504.19;3479278;28;20094;-52
2021/04/24 01:26:03;;;;;;;4.93;2.78;;;;;;;2.85;77.58;99495.56;3480491;28;20049;-50
2021/04/24 01:27:47;;;;;;;8.95;2.60;;;;;;;2.82;77.65;99492.91;3481282;28;20080;-50
2021/04/24 01:29:28;;;;;;;6.07;3.05;;;;;;;2.81;77.61;99502.25;3479170;28;20525;-45
2021/04/24 01:31:10;;;;;;;5.30;2.80;;;;;;;2.78;77.65;99496.13;3482384;28;20418;-44
2021/04/24 01:32:52;;;;;;;5.72;2.88;;;;;;;2.74;77.89;99497.69;3479229;28;20488;-44
2021/04/24 01:34:33;;;;;;;8.57;3.40;;;;;;;2.70;77.95;99499.22;3482482;28;20052;-53
2021/04/24 01:36:15;;;;;;;6.45;3.15;;;;;;;2.68;78.20;99498.31;3479121;28;20079;-50
2021/04/24 01:37:58;;;;;;;5.50;2.95;;;;;;;2.66;78.34;99504.16;3479751;28;20430;-44
2021/04/24 01:39:40;;;;;;;5.13;2.83;;;;;;;2.63;78.54;99491.25;3482754;28;20064;-44
2021/04/24 01:41:21;;;;;;;10.75;3.35;;;;;;;2.61;78.10;99493.72;3477661;28;20135;-53
2021/04/24 01:43:04;;;;;;;8.45;4.13;;;;;;;2.59;78.57;99485.13;3483671;28;20060;-51
2021/04/24 01:44:45;;;;;;;14.57;4.63;;;;;;;2.56;78.36;99490.09;3480194;28;20135;-50
2021/04/24 01:46:27;;;;;;;5.07;3.08;;;;;;;2.55;78.61;99485.78;3483797;28;20052;-44
2021/04/24 01:48:09;;;;;;;6.55;3.33;;;;;;;2.55;78.89;99488.34;3481582;28;20055;-50
2021/04/24 01:49:50;;;;;;;8.07;3.05;;;;;;;2.54;79.16;99490.84;3481397;28;20566;-44
2021/04/24 01:51:32;;;;;;;7.07;2.90;;;;;;;2.53;79.19;99487.41;3483417;28;20138;-44
2021/04/24 01:53:18;;;;;;;7.70;3.13;;;;;;;2.53;79.24;99489.09;3481623;28;20048;-49
2021/04/24 01:54:59;;;;;;;10.30;3.90;;;;;;;2.52;79.30;99498.47;3484691;28;20060;-44
2021/04/24 01:56:43;;;;;;;9.15;3.42;;;;;;;2.50;79.29;99495.84;3481594;28;20063;-44
2021/04/24 01:58:24;;;;;;;5.50;3.30;;;;;;;2.51;79.60;99501.81;3483887;28;20075;-44
2021/04/24 02:00:14;;;;;;;6.95;3.42;;;;;;;2.47;79.73;99493.13;3483217;28;20064;-44
2021/04/24 02:01:57;;;;;;;5.35;3.33;;;;;;;2.48;79.92;99488.88;3482889;28;20048;-50
2021/04/24 02:03:39;;;;;;;6.43;3.15;;;;;;;2.47;80.18;99498.25;3470921;28;20081;-50
2021/04/24 02:05:21;;;;;;;10.57;3.42;;;;;;;2.46;79.96;99493.06;3475302;28;20474;-44
2021/04/24 02:07:04;;;;;;;5.18;2.97;;;;;;;2.44;80.06;99492.13;3485202;28;20052;-44
2021/04/24 02:08:45;;;;;;;5.97;3.65;;;;;;;2.41;80.17;99495.44;3480869;28;20556;-43
2021/04/24 02:10:28;;;;;;;6.28;3.38;;;;;;;2.39;79.45;99496.19;3483255;28;20049;-49
2021/04/24 02:12:13;;;;;;;7.18;3.85;;;;;;;2.37;80.29;99496.09;3481849;28;20049;-51
2021/04/24 02:13:54;;;;;;;6.05;3.83;;;;;;;2.33;80.78;99502.78;3479240;28;20045;-52
2021/04/24 02:15:36;;;;;;;16.15;5.32;;;;;;;2.31;80.73;99501.84;3484458;28;20049;-51
2021/04/24 02:17:19;;;;;;;10.60;3.70;;;;;;;2.29;80.68;99500.03;3480570;28;20106;-52
2021/04/24 02:19:01;;;;;;;5.80;3.15;;;;;;;2.27;80.33;99502.53;3483879;28;20052;-50
2021/04/24 02:20:43;;;;;;;7.60;3.75;;;;;;;2.27;80.67;99502.53;3481297;28;20055;-51
2021/04/24 02:22:25;;;;;;;9.00;4.00;;;;;;;2.29;80.58;99500.91;3480666;28;20103;-53
2021/04/24 02:24:08;;;;;;;6.72;3.70;;;;;;;2.30;80.98;99499.22;3482488;28;20052;-50
2021/04/24 02:25:50;;;;;;;8.02;4.63;;;;;;;2.30;81.04;99484.72;3480761;28;20048;-51
2021/04/24 02:27:32;;;;;;;9.63;5.10;;;;;;;2.32;80.89;99490.81;3483983;28;20426;-51
2021/04/24 02:29:16;;;;;;;12.23;5.20;;;;;;;2.33;81.17;99489.97;3480508;28;20056;-50
2021/04/24 02:30:57;;;;;;;9.52;4.30;;;;;;;2.35;81.32;99490.03;3482910;28;20044;-51
2021/04/24 02:32:39;;;;;;;8.65;3.53;;;;;;;2.37;80.79;99497.78;3480860;28;20053;-53
2021/04/24 02:34:20;;;;;;;6.53;3.78;;;;;;;2.37;81.23;99500.34;3479844;28;20050;-51
2021/04/24 02:36:02;;;;;;;6.47;3.08;;;;;;;2.38;81.27;99504.66;3482656;28;20092;-53
2021/04/24 02:37:43;;;;;;;7.57;3.70;;;;;;;2.39;81.19;99497.03;3480494;28;20049;-53
2021/04/24 02:39:30;;;;;;;6.05;3.45;;;;;;;2.39;80.90;99496.19;3484272;28;20076;-51
2021/04/24 02:41:11;;;;;;;7.97;3.42;;;;;;;2.39;81.11;99494.47;3479005;28;20426;-52
2021/04/24 02:42:52;;;;;;;7.70;2.78;;;;;;;2.41;81.23;99502.22;3483859;28;20056;-45
2021/04/24 02:44:34;;;;;;;6.10;3.55;;;;;;;2.41;81.04;99503.13;3481253;28;20049;-45
2021/04/24 02:46:15;;;;;;;9.35;3.53;;;;;;;2.42;81.34;99504.00;3480782;28;20052;-52
2021/04/24 02:47:57;;;;;;;6.43;3.60;;;;;;;2.42;80.87;99496.31;3482894;28;20499;-51
2021/04/24 02:49:39;;;;;;;6.00;3.03;;;;;;;2.43;80.85;99509.19;3480671;28;20056;-51
2021/04/24 02:51:21;;;;;;;4.55;2.90;;;;;;;2.43;80.76;99506.63;3483777;28;20528;-51
2021/04/24 02:53:03;;;;;;;5.53;3.00;;;;;;;2.44;81.01;99513.47;3480248;28;20114;-50
2021/04/24 02:54:45;;;;;;;4.82;2.97;;;;;;;2.44;80.94;99513.47;3481600;28;20079;-53
2021/04/24 02:56:26;;;;;;;8.23;3.40;;;;;;;2.44;81.13;99510.91;3472886;28;20470;-45
2021/04/24 02:58:08;;;;;;;5.22;3.40;;;;;;;2.44;81.24;99512.63;3472970;28;20045;-51
2021/04/24 02:59:49;;;;;;;5.13;2.95;;;;;;;2.43;81.35;99514.31;3482323;28;20538;-52
2021/04/24 03:01:31;;;;;;;5.70;3.15;;;;;;;2.44;80.92;99517.72;3478952;28;20434;-51
2021/04/24 03:03:14;;;;;;;7.43;3.40;;;;;;;2.44;81.05;99516.03;3483666;28;20055;-51
2021/04/24 03:04:55;;;;;;;5.85;3.45;;;;;;;2.43;81.49;99513.41;3479183;28;20045;-50
2021/04/24 03:06:36;;;;;;;5.40;3.20;;;;;;;2.45;81.43;99520.34;3481928;28;20053;-52
2021/04/24 03:08:18;;;;;;;4.28;3.03;;;;;;;2.45;81.75;99525.47;3481081;28;20053;-51
2021/04/24 03:10:00;;;;;;;5.55;3.47;;;;;;;2.45;81.78;99517.81;3480273;28;20530;-51
2021/04/24 03:11:42;;;;;;;4.18;2.65;;;;;;;2.47;81.65;99520.44;3482778;28;20056;-53
2021/04/24 03:13:23;;;;;;;3.88;2.30;;;;;;;2.46;80.92;99518.66;3477527;28;20045;-51
2021/04/24 03:15:06;;;;;;;6.32;3.38;;;;;;;2.45;81.26;99522.91;3470057;28;20049;-51
2021/04/24 03:16:48;;;;;;;6.70;4.22;;;;;;;2.44;81.40;99531.41;3477185;28;20080;-53
2021/04/24 03:18:29;;;;;;;5.38;3.28;;;;;;;2.44;81.20;99525.41;3481681;28;20114;-50
2021/04/24 03:20:14;;;;;;;6.38;3.33;;;;;;;2.44;80.73;99521.16;3480741;28;20104;-50
2021/04/24 03:21:55;;;;;;;7.15;3.53;;;;;;;2.43;80.97;99521.97;3481404;28;20143;-53
2021/04/24 03:23:37;;;;;;;7.45;3.40;;;;;;;2.45;80.61;99524.63;3469984;28;20435;-51
2021/04/24 03:25:19;;;;;;;6.85;3.50;;;;;;;2.45;80.69;99519.50;3473961;28;20044;-45
2021/04/24 03:27:00;;;;;;;7.72;3.15;;;;;;;2.46;81.04;99527.22;3483393;28;20060;-45
2021/04/24 03:28:43;;;;;;;9.30;4.00;;;;;;;2.47;81.41;99528.97;3480053;28;20080;-45
2021/04/24 03:30:24;;;;;;;7.18;3.47;;;;;;;2.48;81.56;99525.63;3482564;28;20080;-45
2021/04/24 03:32:06;;;;;;;7.28;3.20;;;;;;;2.54;81.08;99534.38;3480411;28;20053;-54
2021/04/24 03:33:48;;;;;;;6.55;3.40;;;;;;;2.56;81.21;99535.31;3480046;28;20045;-45
2021/04/24 03:35:30;;;;;;;6.85;3.38;;;;;;;2.59;81.14;99533.75;3469510;28;20514;-44
2021/04/24 03:37:11;;;;;;;5.32;2.88;;;;;;;2.62;81.22;99533.88;3474999;28;20449;-44
2021/04/24 03:38:53;;;;;;;5.63;3.10;;;;;;;2.65;80.68;99533.16;3483226;28;20049;-44
2021/04/24 03:40:35;;;;;;;5.18;3.42;;;;;;;2.65;80.76;99540.81;3479865;28;20525;-44
2021/04/24 03:42:16;;;;;;;7.32;3.50;;;;;;;2.64;80.78;99542.53;3480786;28;20052;-44
2021/04/24 03:43:58;;;;;;;6.65;3.80;;;;;;;2.65;81.26;99546.81;3481153;28;20525;-44
2021/04/24 03:45:39;;;;;;;7.28;3.38;;;;;;;2.68;80.75;99544.41;3479018;28;20060;-45
2021/04/24 03:47:20;;;;;;;3.95;2.67;;;;;;;2.69;80.70;99541.03;3482959;28;20085;-44
2021/04/24 03:49:02;;;;;;;6.47;3.42;;;;;;;2.72;80.77;99549.66;3478881;28;20519;-44
2021/04/24 03:50:44;;;;;;;6.00;3.10;;;;;;;2.74;80.70;99540.34;3483548;28;20073;-50
2021/04/24 03:52:25;;;;;;;6.90;3.40;;;;;;;2.75;80.65;99544.66;3478780;28;20057;-44
2021/04/24 03:54:07;;;;;;;7.38;3.90;;;;;;;2.75;80.70;99544.66;3482392;28;20045;-43
2021/04/24 03:55:49;;;;;;;7.38;3.67;;;;;;;2.75;80.58;99544.66;3481101;28;20076;-51
2021/04/24 03:57:30;;;;;;;7.32;3.28;;;;;;;2.76;80.79;99551.53;3479925;28;23872;-49
2021/04/24 03:59:12;;;;;;;6.35;3.17;;;;;;;2.78;80.69;99561.00;3482988;28;20060;-49
2021/04/24 04:00:53;;;;;;;6.82;3.05;;;;;;;2.80;80.79;99556.88;3480100;28;20117;-44
2021/04/24 04:02:56;;;;;;;6.28;3.10;;;;;;;2.83;80.36;99551.84;3483214;28;20057;-45
2021/04/24 04:04:40;;;;;;;5.43;3.10;;;;;;;2.86;79.76;99553.69;3479923;28;20053;-44
2021/04/24 04:06:21;;;;;;;;;;;;;;;2.87;79.96;99564.00;3479298;28;20124;-43
2021/04/24 04:08:05;;;;;;;6.60;3.33;;;;;;;2.88;79.67;99564.84;3482249;28;20041;-43
2021/04/24 04:09:46;;;;;;;5.25;2.97;;;;;;;2.90;79.73;99564.09;3478087;28;20130;-45
2021/04/24 04:11:28;;;;;;;6.95;3.22;;;;;;;2.92;79.41;99556.47;3483137;28;20053;-45
2021/04/24 04:13:11;;;;;;;6.40;3.50;;;;;;;2.94;79.62;99561.69;3478329;28;20079;-53
2021/04/24 04:14:52;;;;;;;12.20;3.17;;;;;;;2.97;79.52;99566.94;3482510;28;20080;-45
2021/04/24 04:16:35;;;;;;;7.80;2.70;;;;;;;2.99;79.32;99568.75;3479274;28;20064;-45
2021/04/24 04:18:18;;;;;;;8.85;3.33;;;;;;;3.01;79.33;99568.81;3480901;28;20050;-45
2021/04/24 04:19:59;;;;;;;8.73;3.55;;;;;;;3.04;79.09;99569.81;3469043;28;20503;-43
2021/04/24 04:21:41;;;;;;;8.98;3.38;;;;;;;3.08;79.24;99575.94;3474695;28;20140;-45
2021/04/24 04:23:23;;;;;;;8.60;3.70;;;;;;;3.11;78.77;99572.66;3482848;28;20049;-44
2021/04/24 04:25:06;;;;;;;9.65;3.78;;;;;;;3.15;78.65;99582.19;3478381;28;20055;-46
2021/04/24 04:26:48;;;;;;;7.65;3.47;;;;;;;3.16;79.35;99579.72;3481560;28;20059;-45
2021/04/24 04:28:29;;;;;;;7.05;4.03;;;;;;;3.20;78.75;99580.72;3480008;28;20056;-44
2021/04/24 04:30:14;;;;;;;7.78;3.00;;;;;;;3.22;78.55;99587.66;3479254;28;20504;-45
2021/04/24 04:31:55;;;;;;;6.88;3.55;;;;;;;3.25;78.61;99576.66;3482849;28;20103;-50
2021/04/24 04:33:37;;;;;;;6.38;3.58;;;;;;;3.30;78.65;99577.72;3478212;28;20049;-53
2021/04/24 04:35:19;;;;;;;6.15;3.58;;;;;;;3.34;78.29;99564.19;3483261;28;20053;-52
2021/04/24 04:37:01;;;;;;;7.83;3.90;;;;;;;3.39;78.30;99580.66;3476790;28;20056;-49
2021/04/24 04:38:42;;;;;;;7.78;3.50;;;;;;;3.43;78.18;99568.84;3481136;28;20106;-50
2021/04/24 04:40:24;;;;;;;5.90;3.33;;;;;;;3.45;78.43;99572.31;3480092;28;20049;-49
2021/04/24 04:42:06;;;;;;;5.70;3.17;;;;;;;3.45;77.82;99569.75;3478053;28;20057;-53
2021/04/24 04:43:48;;;;;;;5.78;3.13;;;;;;;3.44;78.04;99563.78;3482554;28;20076;-50
2021/04/24 04:45:30;;;;;;;6.78;3.47;;;;;;;3.42;78.05;99578.22;3478334;28;20053;-50
2021/04/24 04:47:12;;;;;;;12.48;3.45;;;;;;;3.43;77.94;99581.66;3483080;28;20049;-50
2021/04/24 04:48:53;;;;;;;5.95;3.15;;;;;;;3.43;78.15;99573.97;3479689;28;20053;-49
2021/04/24 04:50:36;;;;;;;5.55;3.15;;;;;;;3.46;78.33;99572.41;3479885;28;20060;-44
2021/04/24 04:52:18;;;;;;;8.32;3.70;;;;;;;3.51;78.55;99569.16;3480315;28;20175;-46
2021/04/24 04:53:59;;;;;;;6.10;2.28;;;;;;;3.54;77.76;99570.16;3479664;28;20098;-51
2021/04/24 04:55:41;;;;;;;7.22;3.33;;;;;;;3.56;78.18;99580.44;3482344;28;20518;-49
2021/04/24 04:57:23;;;;;;;8.20;3.05;;;;;;;3.62;78.65;99583.28;3477943;28;20048;-50
2021/04/24 04:59:04;;;;;;;6.07;3.53;;;;;;;3.69;78.47;99587.84;3482811;28;20153;-44
2021/04/24 05:00:46;;;;;;;5.22;3.28;;;;;;;3.72;78.27;99580.28;3479470;28;20045;-46
2021/04/24 05:02:27;;;;;;;8.20;3.28;;;;;;;3.72;77.94;99582.84;3479614;28;20057;-53
2021/04/24 05:04:09;;;;;;;5.65;2.80;;;;;;;3.72;77.68;99582.84;3480954;28;20080;-51
2021/04/24 05:05:50;;;;;;;4.47;2.65;;;;;;;3.64;77.30;99577.38;3479380;28;20049;-54
2021/04/24 05:07:31;;;;;;;4.28;2.15;;;;;;;3.53;77.98;99568.41;3482477;28;20057;-51
2021/04/24 05:09:33;;;;;;;4.97;2.70;;;;;;;3.47;78.71;99576.72;3478145;28;20145;-51
2021/04/24 05:11:14;;;;;;;5.05;3.17;;;;;;;3.47;79.13;99578.38;3481948;28;20476;-50
2021/04/24 05:12:58;;;;;;;5.68;2.55;;;;;;;3.46;78.66;99587.78;3480165;28;20056;-51
2021/04/24 05:14:39;;;;;;;4.95;2.60;;;;;;;3.47;77.87;99576.72;3471809;28;20080;-51
2021/04/24 05:16:20;;;;;;;7.82;2.47;;;;;;;3.48;77.07;99577.59;3469034;28;20511;-45
2021/04/24 05:18:02;;;;;;;4.88;2.45;;;;;;;3.53;77.75;99572.66;3475626;28;20426;-51
2021/04/24 05:19:43;;;;;;;7.18;2.20;;;;;;;3.56;77.71;99573.66;3487309;28;20055;-52
2021/04/24 05:21:27;;;;;;;4.10;2.30;;;;;;;3.58;77.73;99574.59;3483661;28;20506;-45
2021/04/24 05:23:08;;;;;;;7.15;3.17;;;;;;;3.59;77.17;99568.63;3486032;28;20053;-45
2021/04/24 05:24:50;;;;;;;8.52;2.53;;;;;;;3.63;77.54;99575.66;3485122;28;20052;-51
2021/04/24 05:26:32;;;;;;;4.35;2.20;;;;;;;3.70;77.45;99579.34;3482432;28;20080;-44
2021/04/24 05:28:14;;;;;;;4.53;2.65;;;;;;;3.78;77.09;99579.63;3486597;28;20052;-46
2021/04/24 05:29:55;;;;;;;3.38;2.05;;;;;;;3.87;77.43;99574.84;3482416;28;20041;-45
2021/04/24 05:31:37;;;;;;;7.13;3.00;;;;;;;4.04;76.63;99568.66;3486865;28;20501;-46
2021/04/24 05:33:18;;;;;;;5.80;2.88;;;;;;;4.22;76.28;99570.19;3482146;28;20079;-46
2021/04/24 05:35:00;;;;;;;4.40;2.17;;;;;;;4.35;75.34;99561.22;3486057;28;20052;-45
2021/04/24 05:36:42;;;;;;;5.85;2.33;;;;;;;4.39;74.66;99569.13;3484347;28;20056;-45
2021/04/24 05:38:23;;;;;;;5.35;3.10;;;;;;;4.33;74.96;99563.75;3483821;28;20053;-45
2021/04/24 05:40:07;;;;;;;6.60;3.38;;;;;;;4.36;75.76;99570.69;3486500;28;20060;-47
2021/04/24 05:41:48;;;;;;;5.35;3.20;;;;;;;4.38;75.23;99577.63;3481689;28;20506;-45
2021/04/24 05:43:30;;;;;;;4.40;2.50;;;;;;;4.40;75.04;99573.41;3486690;28;20571;-45
2021/04/24 05:45:14;;;;;;;6.93;2.70;;;;;;;4.41;75.45;99574.31;3482425;28;20076;-45
2021/04/24 05:46:55;;;;;;;5.20;3.05;;;;;;;4.39;74.99;99573.38;3485471;28;20458;-46
2021/04/24 05:48:36;;;;;;;8.55;3.22;;;;;;;4.38;75.14;99574.19;3484834;28;20076;-45
2021/04/24 05:50:20;;;;;;;4.90;2.72;;;;;;;4.36;74.82;99581.84;3483193;28;20045;-44
2021/04/24 05:52:07;;;;;;;5.75;2.25;;;;;;;4.35;74.65;99582.69;3473035;28;20053;-44
2021/04/24 05:53:50;;;;;;;5.07;2.55;;;;;;;4.36;74.82;99578.41;3479330;28;20049;-45
2021/04/24 05:55:33;;;;;;;4.65;2.35;;;;;;;4.33;73.25;99584.28;3486920;28;20132;-50
2021/04/24 05:57:14;;;;;;;6.68;3.22;;;;;;;4.30;73.03;99576.50;3482835;28;20418;-48
2021/04/24 05:58:56;;;;;;;6.70;3.40;;;;;;;4.32;73.71;99594.50;3482615;28;20045;-52
2021/04/24 06:00:38;;;;;;;5.70;2.65;;;;;;;4.31;72.62;99588.50;3485069;28;20552;-49
2021/04/24 06:02:19;;;;;;;5.05;3.28;;;;;;;4.34;73.22;99585.19;3481620;28;20054;-51
2021/04/24 06:04:01;;;;;;;4.53;2.75;;;;;;;4.37;72.73;99590.41;3472755;28;20064;-50
2021/04/24 06:05:42;;;;;;;8.38;3.22;;;;;;;4.41;72.40;99576.88;3480087;28;20045;-50
2021/04/24 06:07:24;;;;;;;4.68;3.00;;;;;;;4.46;72.40;99587.31;3486418;28;20411;-50
2021/04/24 06:09:06;;;;;;;4.75;2.80;;;;;;;4.52;72.33;99577.28;3480765;28;20044;-50
2021/04/24 06:10:47;;;;;;;4.03;2.47;;;;;;;4.59;71.44;99582.69;3484424;28;20045;-50
2021/04/24 06:12:28;;;;;;;5.43;2.85;;;;;;;4.77;70.95;99585.03;3483800;28;20524;-50
2021/04/24 06:14:11;;;;;;;5.60;1.90;;;;;;;4.93;69.89;99577.84;3481859;28;20081;-46
2021/04/24 06:15:52;;;;;;;3.95;2.50;;;;;;;4.95;69.29;99596.78;3473127;28;20643;-53
2021/04/24 06:17:34;;;;;;;5.55;2.17;;;;;;;4.98;68.71;99584.03;3476338;28;20088;-50
2021/04/24 06:19:15;;;;;;;3.65;2.15;;;;;;;5.15;68.60;99584.63;3472569;28;20449;-53
2021/04/24 06:20:58;;;;;;;5.43;2.65;;;;;;;5.22;68.94;99581.44;3481832;28;20087;-51
2021/04/24 06:22:40;;;;;;;4.53;2.63;;;;;;;5.30;69.07;99581.69;3484578;28;20045;-51
2021/04/24 06:24:22;;;;;;;7.20;3.25;;;;;;;5.33;67.64;99576.63;3484229;28;20140;-45
2021/04/24 06:26:03;;;;;;;6.32;3.45;;;;;;;5.38;66.82;99575.09;3483019;28;20045;-45
2021/04/24 06:27:45;;;;;;;5.03;2.45;;;;;;;5.55;67.90;99570.47;3487006;28;20056;-46
2021/04/24 06:29:27;;;;;;;5.35;2.35;;;;;;;5.73;64.96;99576.22;3480598;28;20080;-46
2021/04/24 06:31:08;;;;;;;4.70;2.10;;;;;;;5.79;64.35;99565.25;3484165;28;20068;-50
2021/04/24 06:32:52;;;;;;;5.90;2.70;;;;;;;5.90;65.07;99570.72;3480940;28;20136;-49
2021/04/24 06:34:33;;;;;;;3.65;1.77;;;;;;;5.91;64.25;99572.47;3480958;28;20157;-50
2021/04/24 06:36:17;;;;;;;3.85;2.10;;;;;;;5.84;62.12;99566.25;3472452;28;20076;-45
2021/04/24 06:37:58;;;;;;;7.70;2.15;;;;;;;5.73;60.98;99565.06;3474307;28;20053;-45
2021/04/24 06:39:40;;;;;;;3.15;1.98;;;;;;;5.77;61.75;99581.47;3484209;28;20325;-45
2021/04/24 06:41:21;;;;;;;7.00;2.50;;;;;;;5.83;61.30;99576.50;3480690;28;20049;-45
2021/04/24 06:43:03;;;;;;;2.13;1.25;;;;;;;5.97;57.51;99580.38;3483283;28;20049;-46
2021/04/24 06:44:45;;;;;;;3.53;1.45;;;;;;;6.09;56.14;99561.84;3480485;28;20057;-45
2021/04/24 06:46:26;;;;;;;7.20;1.40;;;;;;;6.14;57.15;99565.44;3480398;28;20507;-52
2021/04/24 06:48:08;;;;;;;3.90;1.42;;;;;;;6.09;55.77;99562.72;3483251;28;20059;-47
2021/04/24 06:49:50;;;;;;;3.40;1.23;;;;;;;6.01;54.59;99565.91;3479103;28;20563;-45
2021/04/24 06:51:31;;;;;;;4.07;1.75;;;;;;;5.89;53.80;99559.56;3483847;28;20103;-46
2021/04/24 06:53:12;;;;;;;3.10;1.42;;;;;;;6.05;53.60;99565.19;3480779;28;20049;-47
2021/04/24 06:54:54;;;;;;;4.85;1.70;;;;;;;6.19;53.42;99573.28;3481309;28;20441;-45
2021/04/24 06:56:35;;;;;;;3.92;1.50;;;;;;;6.18;53.79;99569.84;3482314;28;20055;-50
2021/04/24 06:58:16;;;;;;;5.60;1.38;;;;;;;6.23;53.76;99576.00;3480033;28;20457;-45
2021/04/24 06:59:58;;;;;;;2.13;1.13;;;;;;;6.34;51.88;99571.16;3482966;28;20052;-50
2021/04/24 07:01:40;;;;;;;2.92;1.20;;;;;;;6.45;51.79;99569.78;3480600;28;20103;-50
2021/04/24 07:03:21;;;;;;;2.10;1.20;;;;;;;6.64;52.55;99566.00;3483642;28;20442;-50
2021/04/24 07:05:04;;;;;;;2.42;1.23;;;;;;;6.78;53.04;99568.09;3479172;28;20095;-50
2021/04/24 07:06:45;;;;;;;3.55;1.27;;;;;;;6.72;49.24;99568.81;3471033;28;20080;-46
2021/04/24 07:08:27;;;;;;;3.25;1.10;;;;;;;6.61;49.16;99570.19;3482496;28;20061;-51
2021/04/24 07:10:11;;;;;;;2.67;1.10;;;;;;;6.62;52.11;99580.56;3479021;28;20052;-51
2021/04/24 07:11:52;;;;;;;;;;;;;;;6.56;49.96;99571.78;3483425;28;20053;-52
2021/04/24 07:13:36;;;;;;;4.40;1.08;;;;;;;6.49;50.06;99568.19;3476368;28;20382;-53
2021/04/24 07:15:18;;;;;;;5.65;1.15;;;;;;;6.37;48.24;99584.16;3483769;28;20056;-53
2021/04/24 07:17:00;;;;;;;1.83;0.85;;;;;;;6.32;48.23;99573.69;3478952;28;20048;-55
2021/04/24 07:18:43;;;;;;;2.38;0.88;;;;;;;6.30;48.97;99577.94;3480995;28;20053;-46
2021/04/24 07:20:25;;;;;;;3.80;1.00;;;;;;;6.27;48.82;99580.41;3482357;28;20110;-50
2021/04/24 07:22:06;;;;;;;1.35;0.88;;;;;;;6.23;50.01;99578.59;3480048;28;20430;-52
2021/04/24 07:23:48;;;;;;;3.05;0.90;;;;;;;6.24;50.41;99579.44;3483695;28;20084;-50
2021/04/24 07:25:30;;;;;;;2.20;1.00;;;;;;;6.41;50.37;99585.09;3480442;28;20107;-46
2021/04/24 07:27:12;;;;;;;1.80;1.08;;;;;;;6.73;50.84;99582.56;3483529;28;20048;-46
2021/04/24 07:28:53;;;;;;;2.17;0.90;;;;;;;6.86;48.41;99575.22;3480153;28;20052;-45
2021/04/24 07:30:35;;;;;;;1.40;0.60;;;;;;;7.01;46.40;99589.38;3480079;28;20049;-45
2021/04/24 07:32:16;;;;;;;3.08;0.90;;;;;;;6.79;43.63;99586.19;3481787;28;20045;-45
2021/04/24 07:33:59;;;;;;;2.58;0.77;;;;;;;6.55;46.03;99578.63;3480313;28;20049;-46
2021/04/24 07:35:40;;;;;;;1.45;0.90;;;;;;;6.44;47.36;99580.91;3484107;28;20049;-45
2021/04/24 07:37:22;;;;;;;7.78;1.00;;;;;;;6.54;46.39;99592.38;3478422;28;20057;-46
2021/04/24 07:39:05;;;;;;;2.28;1.10;;;;;;;6.72;46.23;99601.44;3483520;28;20045;-51
2021/04/24 07:40:46;;;;;;;2.55;0.88;;;;;;;6.75;45.90;99581.75;3479677;28;20052;-50
2021/04/24 07:42:28;;;;;;;1.67;0.88;;;;;;;6.73;46.42;99598.03;3480188;28;20073;-50
2021/04/24 07:44:09;;;;;;;2.40;1.00;;;;;;;6.64;47.70;99578.88;3482135;28;20057;-45
2021/04/24 07:45:51;;;;;;;4.00;1.10;;;;;;;6.58;46.54;99583.03;3478887;28;20110;-46
2021/04/24 07:47:33;;;;;;;3.92;1.08;;;;;;;6.51;47.52;99588.00;3469518;28;20049;-45
2021/04/24 07:49:14;;;;;;;2.13;0.85;;;;;;;6.50;49.56;99580.22;3476563;28;20049;-53
2021/04/24 07:50:56;;;;;;;1.95;0.90;;;;;;;6.49;46.62;99601.69;3483303;28;20045;-45
2021/04/24 07:52:38;;;;;;;5.03;1.45;;;;;;;6.39;45.30;99594.50;3480303;28;20049;-51
2021/04/24 07:54:19;;;;;;;3.40;1.58;;;;;;;6.31;45.51;99604.56;3481102;28;20498;-51
2021/04/24 07:56:00;;;;;;;6.18;1.60;;;;;;;6.20;44.39;99609.41;3481996;28;20083;-45
2021/04/24 07:57:43;;;;;;;6.55;1.10;;;;;;;6.25;44.76;99606.97;3478678;28;20064;-45
2021/04/24 07:59:24;;;;;;;4.93;1.13;;;;;;;6.59;46.74;99597.63;3483382;28;20407;-46
2021/04/24 08:01:10;;;;;;;3.17;0.82;;;;;;;7.00;45.86;99595.34;3478718;28;20079;-45
2021/04/24 08:02:52;;;;;;;1.33;0.57;;;;;;;7.36;43.42;99594.59;3482609;28;20175;-52
2021/04/24 08:04:33;;;;;;;2.92;1.13;;;;;;;7.52;44.22;99588.09;3479184;28;20077;-50
2021/04/24 08:06:15;;;;;;;4.68;1.30;;;;;;;7.62;45.90;99595.22;3481232;28;20083;-45